Time,TemperatureF,DewpointF,PressureIn,WindDirection,WindDirectionDegrees,WindSpeedMPH,WindSpeedGustMPH,Humidity,HourlyPrecipIn,Conditions,Clouds,dailyrainin,SoftwareType,DateUTC
2013-02-18 00:02:00,16.0,4.0,29.55,NE,51,1.0,9.0,59,0.00,,,0.00,,2013-02-18 05:02:00,
2013-02-18 00:11:00,16.0,4.0,29.55,NE,51,1.0,9.0,59,0.00,,,0.00,,2013-02-18 05:11:00,
2013-02-18 00:21:00,16.0,4.0,29.55,NE,51,1.0,9.0,59,0.00,,,0.00,,2013-02-18 05:21:00,
2013-02-18 00:32:00,16.0,4.0,29.57,North,350,0.0,0.0,59,0.00,,,0.00,,2013-02-18 05:32:00,
2013-02-18 00:42:00,16.0,4.0,29.57,North,350,0.0,0.0,59,0.00,,,0.00,,2013-02-18 05:42:00,
2013-02-18 00:52:00,16.0,4.0,29.57,North,350,0.0,0.0,59,0.00,,,0.00,,2013-02-18 05:52:00,
2013-02-18 01:02:00,16.0,4.0,29.57,NW,323,1.0,3.0,59,0.00,,,0.00,,2013-02-18 06:02:00,
2013-02-18 01:11:00,16.0,4.0,29.57,NW,323,1.0,3.0,59,0.00,,,0.00,,2013-02-18 06:11:00,
2013-02-18 01:21:00,16.0,4.0,29.57,NW,325,0.0,0.0,59,0.00,,,0.00,,2013-02-18 06:21:00,
2013-02-18 01:32:00,16.0,5.0,29.58,West,278,0.0,0.0,61,0.00,,,0.00,,2013-02-18 06:32:00,
2013-02-18 01:42:00,16.0,5.0,29.58,West,278,0.0,0.0,61,0.00,,,0.00,,2013-02-18 06:42:00,
2013-02-18 01:51:00,16.0,5.0,29.58,NW,312,0.0,0.0,61,0.00,,,0.00,,2013-02-18 06:51:00,
2013-02-18 02:01:00,16.0,5.0,29.58,NW,312,0.0,0.0,61,0.00,,,0.00,,2013-02-18 07:01:00,
2013-02-18 02:11:00,16.0,5.0,29.58,NW,312,0.0,0.0,61,0.00,,,0.00,,2013-02-18 07:11:00,
2013-02-18 02:22:00,16.0,5.0,29.59,West,264,0.0,2.0,61,0.00,,,0.00,,2013-02-18 07:22:00,
2013-02-18 02:32:00,16.0,5.0,29.59,NNW,332,0.0,0.0,62,0.00,,,0.00,,2013-02-18 07:32:00,
2013-02-18 02:42:00,16.0,5.0,29.59,NNW,332,0.0,0.0,62,0.00,,,0.00,,2013-02-18 07:42:00,
2013-02-18 02:52:00,16.0,5.0,29.60,NNW,332,0.0,0.0,62,0.00,,,0.00,,2013-02-18 07:52:00,
2013-02-18 03:01:00,16.0,5.0,29.60,NNW,336,0.0,0.0,61,0.00,,,0.00,,2013-02-18 08:01:00,
2013-02-18 03:11:00,16.0,5.0,29.60,NNW,336,0.0,0.0,61,0.00,,,0.00,,2013-02-18 08:11:00,
2013-02-18 03:21:00,16.0,5.0,29.61,North,359,0.0,0.0,61,0.00,,,0.00,,2013-02-18 08:21:00,
2013-02-18 03:32:00,16.0,5.0,29.62,WNW,283,0.0,0.0,61,0.00,,,0.00,,2013-02-18 08:32:00,
2013-02-18 03:42:00,16.0,5.0,29.62,WNW,283,0.0,0.0,61,0.00,,,0.00,,2013-02-18 08:42:00,
2013-02-18 03:52:00,16.0,5.0,29.62,WNW,283,0.0,0.0,61,0.00,,,0.00,,2013-02-18 08:52:00,
2013-02-18 04:03:00,16.0,5.0,29.63,West,269,0.0,0.0,62,0.00,,,0.00,,2013-02-18 09:03:00,
2013-02-18 04:11:00,16.0,5.0,29.63,West,269,0.0,0.0,62,0.00,,,0.00,,2013-02-18 09:11:00,
2013-02-18 04:22:00,16.0,5.0,29.63,West,269,0.0,0.0,62,0.00,,,0.00,,2013-02-18 09:22:00,
2013-02-18 04:32:00,15.0,5.0,29.65,NW,323,0.0,0.0,63,0.00,,,0.00,,2013-02-18 09:32:00,
2013-02-18 04:42:00,15.0,5.0,29.65,NW,323,0.0,0.0,63,0.00,,,0.00,,2013-02-18 09:42:00,
2013-02-18 04:51:00,15.0,5.0,29.65,NW,323,0.0,0.0,63,0.00,,,0.00,,2013-02-18 09:51:00,
2013-02-18 05:01:00,15.0,5.0,29.66,West,278,0.0,0.0,64,0.00,,,0.00,,2013-02-18 10:01:00,
2013-02-18 05:11:00,15.0,5.0,29.66,West,278,0.0,0.0,64,0.00,,,0.00,,2013-02-18 10:11:00,
2013-02-18 05:21:00,15.0,5.0,29.66,West,278,0.0,0.0,64,0.00,,,0.00,,2013-02-18 10:21:00,
2013-02-18 05:32:00,15.0,5.0,29.68,West,278,0.0,0.0,64,0.00,,,0.00,,2013-02-18 10:32:00,
2013-02-18 05:42:00,15.0,5.0,29.68,West,278,0.0,0.0,64,0.00,,,0.00,,2013-02-18 10:42:00,
2013-02-18 05:52:00,15.0,5.0,29.70,West,278,0.0,0.0,64,0.00,,,0.00,,2013-02-18 10:52:00,
2013-02-18 06:02:00,15.0,5.0,29.71,WSW,246,1.0,5.0,64,0.00,,,0.00,,2013-02-18 11:02:00,
2013-02-18 06:11:00,15.0,5.0,29.71,WSW,246,1.0,5.0,64,0.00,,,0.00,,2013-02-18 11:11:00,
2013-02-18 06:22:00,15.0,5.0,29.71,WSW,246,1.0,5.0,64,0.00,,,0.00,,2013-02-18 11:22:00,
2013-02-18 06:32:00,15.0,5.0,29.72,WSW,246,0.0,0.0,65,0.00,,,0.00,,2013-02-18 11:32:00,
2013-02-18 06:42:00,15.0,5.0,29.72,WSW,246,0.0,0.0,65,0.00,,,0.00,,2013-02-18 11:42:00,
2013-02-18 06:52:00,15.0,5.0,29.72,WSW,246,0.0,0.0,65,0.00,,,0.00,,2013-02-18 11:52:00,
2013-02-18 07:02:00,15.0,5.0,29.74,WSW,246,0.0,0.0,65,0.00,,,0.00,,2013-02-18 12:02:00,
2013-02-18 07:12:00,15.0,5.0,29.74,WSW,246,0.0,0.0,65,0.00,,,0.00,,2013-02-18 12:12:00,
2013-02-18 07:22:00,15.0,5.0,29.75,WSW,246,0.0,0.0,65,0.00,,,0.00,,2013-02-18 12:22:00,
2013-02-18 07:32:00,15.0,6.0,29.75,WSW,246,0.0,0.0,66,0.00,,,0.00,,2013-02-18 12:32:00,
2013-02-18 07:42:00,15.0,6.0,29.75,WSW,246,0.0,0.0,66,0.00,,,0.00,,2013-02-18 12:42:00,
2013-02-18 07:52:00,15.0,6.0,29.75,WSW,246,0.0,0.0,66,0.00,,,0.00,,2013-02-18 12:52:00,
2013-02-18 08:03:00,16.0,6.0,29.75,North,354,0.0,0.0,65,0.00,,,0.00,,2013-02-18 13:03:00,
2013-02-18 08:12:00,16.0,6.0,29.75,North,354,0.0,0.0,65,0.00,,,0.00,,2013-02-18 13:12:00,
2013-02-18 08:22:00,16.0,6.0,29.75,West,276,1.0,6.0,64,0.00,,,0.00,,2013-02-18 13:22:00,
2013-02-18 08:32:00,17.0,7.0,29.75,WSW,249,0.0,0.0,64,0.00,,,0.00,,2013-02-18 13:32:00,
2013-02-18 08:42:00,17.0,7.0,29.75,WSW,249,0.0,0.0,64,0.00,,,0.00,,2013-02-18 13:42:00,
2013-02-18 08:53:00,17.0,7.0,29.76,WSW,249,0.0,0.0,63,0.00,,,0.00,,2013-02-18 13:53:00,
2013-02-18 09:02:00,17.0,7.0,29.76,WSW,249,0.0,0.0,63,0.00,,,0.00,,2013-02-18 14:02:00,
2013-02-18 09:11:00,17.0,7.0,29.76,WSW,249,0.0,0.0,63,0.00,,,0.00,,2013-02-18 14:11:00,
2013-02-18 09:22:00,18.0,7.0,29.78,West,280,0.0,0.0,61,0.00,,,0.00,,2013-02-18 14:22:00,
2013-02-18 09:33:00,19.0,7.0,29.78,West,280,0.0,0.0,60,0.00,,,0.00,,2013-02-18 14:33:00,
2013-02-18 09:42:00,19.0,7.0,29.78,West,280,0.0,0.0,60,0.00,,,0.00,,2013-02-18 14:42:00,
2013-02-18 09:54:00,19.0,7.0,29.78,West,280,0.0,0.0,60,0.00,,,0.00,,2013-02-18 14:54:00,
2013-02-18 10:02:00,21.0,8.0,29.79,West,274,0.0,0.0,56,0.00,,,0.00,,2013-02-18 15:02:00,
2013-02-18 10:12:00,21.0,8.0,29.79,West,274,0.0,0.0,56,0.00,,,0.00,,2013-02-18 15:12:00,
2013-02-18 10:22:00,21.0,8.0,29.79,West,274,0.0,0.0,56,0.00,,,0.00,,2013-02-18 15:22:00,
2013-02-18 10:32:00,23.0,9.0,29.79,West,274,0.0,0.0,54,0.00,,,0.00,,2013-02-18 15:32:00,
2013-02-18 10:42:00,23.0,9.0,29.79,West,274,0.0,0.0,54,0.00,,,0.00,,2013-02-18 15:42:00,
2013-02-18 10:52:00,23.0,8.0,29.79,West,274,0.0,0.0,52,0.00,,,0.00,,2013-02-18 15:52:00,
2013-02-18 11:03:00,25.0,9.0,29.80,West,274,0.0,0.0,50,0.00,,,0.00,,2013-02-18 16:03:00,
2013-02-18 11:12:00,25.0,9.0,29.80,West,274,0.0,0.0,50,0.00,,,0.00,,2013-02-18 16:12:00,
2013-02-18 11:22:00,26.0,9.0,29.80,West,274,0.0,0.0,48,0.00,,,0.00,,2013-02-18 16:22:00,
2013-02-18 11:32:00,27.0,9.0,29.80,West,274,0.0,0.0,47,0.00,,,0.00,,2013-02-18 16:32:00,
2013-02-18 11:42:00,27.0,9.0,29.80,West,274,0.0,0.0,47,0.00,,,0.00,,2013-02-18 16:42:00,
2013-02-18 11:52:00,28.0,11.0,29.80,West,274,0.0,0.0,48,0.00,,,0.00,,2013-02-18 16:52:00,
2013-02-18 12:04:00,29.0,11.0,29.79,North,350,0.0,0.0,46,0.00,,,0.00,,2013-02-18 17:04:00,
2013-02-18 12:12:00,29.0,11.0,29.79,North,350,0.0,0.0,46,0.00,,,0.00,,2013-02-18 17:12:00,
2013-02-18 12:22:00,29.0,10.0,29.79,North,350,0.0,0.0,44,0.00,,,0.00,,2013-02-18 17:22:00,
2013-02-18 12:32:00,29.0,10.0,29.79,NW,316,0.0,0.0,44,0.00,,,0.00,,2013-02-18 17:32:00,
2013-02-18 12:42:00,29.0,10.0,29.79,NW,316,0.0,0.0,44,0.00,,,0.00,,2013-02-18 17:42:00,
2013-02-18 12:52:00,30.0,11.0,29.78,NW,316,0.0,0.0,44,0.00,,,0.00,,2013-02-18 17:52:00,
2013-02-18 13:02:00,31.0,11.0,29.77,NW,316,0.0,0.0,43,0.00,,,0.00,,2013-02-18 18:02:00,
2013-02-18 13:12:00,31.0,11.0,29.77,NW,316,0.0,0.0,43,0.00,,,0.00,,2013-02-18 18:12:00,
2013-02-18 13:23:00,32.0,12.0,29.77,NW,316,0.0,0.0,42,0.00,,,0.00,,2013-02-18 18:23:00,
2013-02-18 13:33:00,32.0,11.0,29.77,NW,316,0.0,0.0,41,0.00,,,0.00,,2013-02-18 18:33:00,
2013-02-18 13:42:00,32.0,11.0,29.77,NW,316,0.0,0.0,41,0.00,,,0.00,,2013-02-18 18:42:00,
2013-02-18 13:50:00,32.0,10.0,29.76,NW,316,0.0,0.0,39,0.00,,,0.00,,2013-02-18 18:50:00,
2013-02-18 13:52:00,32.0,12.0,29.76,NW,316,0.0,0.0,42,0.00,,,0.00,,2013-02-18 18:52:00,
2013-02-18 14:03:00,32.0,10.0,29.76,NW,316,0.0,0.0,39,0.00,,,0.00,,2013-02-18 19:03:00,
2013-02-18 14:12:00,32.0,10.0,29.76,NW,316,0.0,0.0,39,0.00,,,0.00,,2013-02-18 19:12:00,
2013-02-18 14:22:00,32.0,10.0,29.76,NW,316,0.0,0.0,39,0.00,,,0.00,,2013-02-18 19:22:00,
2013-02-18 14:33:00,32.0,10.0,29.76,NW,316,0.0,0.0,39,0.00,,,0.00,,2013-02-18 19:33:00,
2013-02-18 14:43:00,32.0,10.0,29.76,NW,316,0.0,0.0,39,0.00,,,0.00,,2013-02-18 19:43:00,
2013-02-18 22:07:00,27.0,18.0,29.76,NW,316,0.0,0.0,69,-99.99,,,0.00,,2013-02-19 03:07:00,
2013-02-18 22:15:00,27.0,18.0,29.76,NW,316,0.0,0.0,69,-99.99,,,0.00,,2013-02-19 03:15:00,
2013-02-18 22:25:00,27.0,19.0,29.76,NW,316,0.0,0.0,70,-99.99,,,0.00,,2013-02-19 03:25:00,
2013-02-18 22:35:00,27.0,18.0,29.76,NW,316,0.0,0.0,69,-99.99,,,0.00,,2013-02-19 03:35:00,
2013-02-18 22:44:00,27.0,18.0,29.76,NW,316,0.0,0.0,69,-99.99,,,0.00,,2013-02-19 03:44:00,
2013-02-18 22:53:00,27.0,19.0,29.76,NW,316,0.0,0.0,70,-99.99,,,0.00,,2013-02-19 03:53:00,
2013-02-18 23:03:00,27.0,19.0,29.76,NW,316,0.0,0.0,72,0.00,,,0.00,,2013-02-19 04:03:00,
2013-02-18 23:14:00,27.0,19.0,29.76,NW,316,0.0,0.0,72,0.00,,,0.00,,2013-02-19 04:14:00,
2013-02-18 23:23:00,27.0,19.0,29.76,NW,316,0.0,0.0,72,0.00,,,0.00,,2013-02-19 04:23:00,
2013-02-18 23:34:00,27.0,20.0,29.76,NW,316,0.0,0.0,73,0.00,,,0.00,,2013-02-19 04:34:00,
2013-02-18 23:44:00,27.0,20.0,29.76,NW,316,0.0,0.0,73,0.00,,,0.00,,2013-02-19 04:44:00,
2013-02-18 23:53:00,27.0,20.0,29.76,NW,316,0.0,0.0,73,0.00,,,0.00,,2013-02-19 04:53:00,